Impacts TAF Board INFO
FOR SITUATIONAL AWARENESS. NOT TO BE USED FOR FLIGHT PLANNING PURPOSES.
IDs:

KMCO - Orlando Intl, FL, US

Issued at 0520 UTC 12 Dec 2017
Updated at 0810 UTC 12 Dec 2017
Potential Impact None Slight Moderate High
Time<<12/21Z 12/22Z 12/23Z 13/00Z 13/01Z 13/02Z 13/03Z 13/04Z 13/05Z 13/06Z 13/07Z 13/08Z 13/09Z>>
Type PRVL PRVL PRVL PRVL PRVL PRVL PRVL PRVL PRVL PRVL PRVL PRVL PRVL
VIS >6 >6 >6 >6 >6 >6 >6 >6 >6 >6 >6 >6 >6
CIG 250 250 250 -- -- -- -- -- -- -- -- -- --
Cover BKN BKN BKN SKC SKC SKC SKC SKC SKC SKC SKC SKC SKC
FltCat VFR VFR VFR VFR VFR VFR VFR VFR VFR VFR VFR VFR VFR
WX -- -- -- -- -- -- -- -- -- -- -- -- --
WDir 260 260 260 290 290 290 290 290 290 290 290 320 320
WSpd 17 17 17 10 10 10 10 10 10 10 10 8 8
WGst 26 26 26 -- -- -- -- -- -- -- -- -- --

Raw TAF
KMCO 120520Z 1206/1312 25005KT P6SM FEW250
  FM120800 22004KT P6SM FEW250
  FM121500 23009KT P6SM FEW040 SCT250
  FM121700 26017G26KT P6SM SCT050 BKN250
  FM130000 29010KT P6SM SKC
  FM130800 32008KT P6SM SKC


METAR Board
Radar Display
Forecast Discussion

FOR SITUATIONAL AWARENESS. NOT TO BE USED FOR FLIGHT PLANNING PURPOSES.